createdAt,value
2023-02-11T00:01:49.106Z,8.27
2023-02-11T00:04:15.764Z,8.30
2023-02-11T00:06:42.458Z,8.07
2023-02-11T00:09:10.641Z,7.60
2023-02-11T00:11:37.364Z,7.72
2023-02-11T00:14:06.693Z,7.45
2023-02-11T00:16:33.479Z,7.88
2023-02-11T00:19:01.166Z,7.53
2023-02-11T00:21:28.313Z,7.55
2023-02-11T00:23:57.183Z,7.00
2023-02-11T00:26:31.846Z,7.28
2023-02-11T00:28:59.187Z,6.68
2023-02-11T00:31:26.059Z,8.38
2023-02-11T00:33:53.125Z,7.35
2023-02-11T00:36:22.224Z,7.43
2023-02-11T00:38:49.931Z,7.72
2023-02-11T00:41:17.340Z,6.78
2023-02-11T00:43:44.245Z,7.50
2023-02-11T00:46:11.763Z,7.00
2023-02-11T00:48:38.456Z,7.53
2023-02-11T00:51:05.475Z,6.88
2023-02-11T00:53:32.846Z,6.93
2023-02-11T00:56:01.028Z,8.57
2023-02-11T00:58:28.501Z,6.78
2023-02-11T01:00:56.003Z,7.22
2023-02-11T01:03:24.356Z,7.53
2023-02-11T01:05:51.279Z,7.40
2023-02-11T01:08:18.133Z,6.88
2023-02-11T01:10:45.094Z,6.88
2023-02-11T01:13:11.837Z,8.70
2023-02-11T01:15:38.500Z,7.10
2023-02-11T01:18:05.983Z,6.82
2023-02-11T01:20:32.716Z,7.05
2023-02-11T01:22:59.336Z,7.80
2023-02-11T01:25:25.972Z,6.97
2023-02-11T01:27:52.629Z,7.35
2023-02-11T01:30:19.484Z,7.07
2023-02-11T01:32:47.302Z,7.07
2023-02-11T01:35:13.955Z,7.45
2023-02-11T01:37:40.766Z,7.70
2023-02-11T01:40:12.649Z,8.38
2023-02-11T01:42:39.282Z,7.28
2023-02-11T01:45:42.673Z,7.40
2023-02-11T01:48:12.519Z,7.57
2023-02-11T01:50:41.589Z,7.60
2023-02-11T01:53:29.061Z,7.35
2023-02-11T01:56:14.934Z,7.50
2023-02-11T01:58:43.803Z,7.78
2023-02-11T02:01:13.900Z,7.05
2023-02-11T02:03:42.754Z,8.18
2023-02-11T02:06:17.206Z,9.07
2023-02-11T02:08:57.017Z,6.93
2023-02-11T02:11:24.191Z,7.85
2023-02-11T02:13:50.783Z,8.05
2023-02-11T02:16:22.365Z,9.02
2023-02-11T02:18:52.013Z,8.30
2023-02-11T02:21:46.580Z,8.45
2023-02-11T02:24:38.263Z,8.50
2023-02-11T02:27:26.757Z,8.80
2023-02-11T02:30:11.490Z,8.50
2023-02-11T02:32:41.071Z,9.55
2023-02-11T02:35:25.742Z,9.88
2023-02-11T02:38:04.640Z,10.40
2023-02-11T02:40:39.305Z,10.18
2023-02-11T02:43:07.824Z,10.13
2023-02-11T02:45:34.552Z,11.35
2023-02-11T02:48:01.213Z,10.55
2023-02-11T02:50:31.885Z,10.10
2023-02-11T02:53:20.499Z,10.05
2023-02-11T02:56:02.797Z,10.13
2023-02-11T02:58:41.646Z,10.23
2023-02-11T03:01:15.762Z,11.00
2023-02-11T03:03:54.528Z,10.65
2023-02-11T03:06:32.431Z,11.57
2023-02-11T03:08:59.067Z,11.18
2023-02-11T03:11:26.157Z,11.43
2023-02-11T03:13:53.207Z,11.95
2023-02-11T03:16:22.242Z,11.70
2023-02-11T03:18:53.533Z,12.20
2023-02-11T03:21:20.772Z,11.93
2023-02-11T03:23:55.103Z,13.13
2023-02-11T03:26:24.629Z,12.45
2023-02-11T03:29:12.325Z,13.18
2023-02-11T03:31:50.032Z,13.05
2023-02-11T03:34:30.658Z,13.52
2023-02-11T03:37:02.629Z,14.25
2023-02-11T03:39:35.291Z,13.73
2023-02-11T03:42:03.009Z,13.85
2023-02-11T03:44:33.360Z,14.40
2023-02-11T03:47:01.254Z,14.38
2023-02-11T03:49:28.729Z,15.93
2023-02-11T03:51:56.805Z,15.32
2023-02-11T03:54:27.825Z,15.15
2023-02-11T03:56:57.360Z,15.43
2023-02-11T03:59:24.170Z,14.55
2023-02-11T04:01:51.018Z,15.88
2023-02-11T04:04:18.084Z,15.68
2023-02-11T04:06:44.803Z,15.57
2023-02-11T04:09:12.128Z,16.35
2023-02-11T04:11:38.757Z,16.10
2023-02-11T04:14:05.448Z,14.10
2023-02-11T04:16:32.086Z,16.88
2023-02-11T04:18:58.719Z,17.15
2023-02-11T04:21:25.422Z,17.85
2023-02-11T04:23:52.062Z,18.45
2023-02-11T04:26:18.613Z,19.08
2023-02-11T04:28:45.213Z,17.73
2023-02-11T04:31:12.888Z,17.58
2023-02-11T04:33:39.662Z,18.63
2023-02-11T04:36:06.693Z,19.23
2023-02-11T04:38:33.404Z,17.75
2023-02-11T04:41:00.591Z,19.23
2023-02-11T04:43:27.381Z,19.30
2023-02-11T04:45:57.937Z,19.13
2023-02-11T04:48:25.304Z,20.00
2023-02-11T04:50:51.957Z,19.63
2023-02-11T04:53:18.635Z,20.42
2023-02-11T04:55:45.370Z,20.25
2023-02-11T04:58:12.115Z,20.20
2023-02-11T05:00:38.684Z,19.30
2023-02-11T05:03:05.316Z,20.55
2023-02-11T05:05:31.899Z,20.30
2023-02-11T05:07:58.543Z,20.95
2023-02-11T05:10:25.234Z,19.83
2023-02-11T05:12:54.024Z,21.60
2023-02-11T05:15:22.046Z,20.45
2023-02-11T05:17:48.724Z,20.35
2023-02-11T05:20:15.356Z,20.60
2023-02-11T05:22:42.045Z,21.92
2023-02-11T05:25:08.950Z,20.33
2023-02-11T05:27:35.691Z,19.92
2023-02-11T05:30:02.636Z,20.98
2023-02-11T05:32:29.340Z,20.98
2023-02-11T05:34:55.926Z,21.13
2023-02-11T05:37:22.643Z,21.80
2023-02-11T05:39:49.413Z,21.25
2023-02-11T05:42:16.033Z,20.83
2023-02-11T05:44:42.684Z,20.85
2023-02-11T05:47:09.366Z,19.80
2023-02-11T05:49:35.946Z,23.02
2023-02-11T05:52:02.642Z,22.23
2023-02-11T05:54:29.202Z,22.85
2023-02-11T05:56:55.963Z,21.88
2023-02-11T05:59:22.551Z,22.40
2023-02-11T06:01:49.372Z,23.55
2023-02-11T06:04:16.113Z,23.38
2023-02-11T06:06:42.741Z,23.00
2023-02-11T06:09:10.160Z,24.27
2023-02-11T06:11:36.877Z,24.33
2023-02-11T06:14:03.614Z,25.50
2023-02-11T06:16:30.377Z,25.02
2023-02-11T06:18:57.007Z,25.52
2023-02-11T06:21:28.582Z,25.98
2023-02-11T06:24:00.154Z,23.00
2023-02-11T06:26:26.901Z,25.60
2023-02-11T06:28:53.716Z,25.75
2023-02-11T06:31:20.471Z,25.48
2023-02-11T06:33:47.216Z,26.20
2023-02-11T06:36:18.794Z,25.55
2023-02-11T06:38:46.653Z,25.35
2023-02-11T06:41:14.503Z,26.70
2023-02-11T06:43:41.715Z,28.17
2023-02-11T06:46:08.675Z,27.05
2023-02-11T06:48:35.900Z,27.40
2023-02-11T06:51:04.950Z,27.65
2023-02-11T06:53:32.644Z,26.70
2023-02-11T06:56:07.442Z,26.80
2023-02-11T06:58:34.066Z,26.98
2023-02-11T07:01:04.184Z,26.35
2023-02-11T07:03:31.479Z,26.52
2023-02-11T07:05:58.186Z,25.13
2023-02-11T07:08:25.450Z,26.08
2023-02-11T07:10:52.014Z,25.42
2023-02-11T07:13:18.619Z,25.35
2023-02-11T07:15:45.294Z,25.63
2023-02-11T07:18:14.614Z,25.77
2023-02-11T07:20:41.497Z,24.83
2023-02-11T07:23:08.122Z,26.40
2023-02-11T07:25:35.628Z,25.58
2023-02-11T07:28:03.464Z,25.08
2023-02-11T07:30:30.232Z,24.85
2023-02-11T07:32:57.178Z,25.13
2023-02-11T07:35:23.849Z,25.65
2023-02-11T07:37:50.462Z,24.98
2023-02-11T07:40:17.277Z,23.65
2023-02-11T07:42:44.028Z,23.98
2023-02-11T07:45:10.811Z,24.67
2023-02-11T07:47:38.202Z,24.40
2023-02-11T07:50:04.908Z,25.63
2023-02-11T07:52:31.477Z,24.77
2023-02-11T07:55:02.665Z,23.90
2023-02-11T07:57:31.149Z,23.10
2023-02-11T07:59:57.818Z,24.20
2023-02-11T08:02:24.481Z,24.08
2023-02-11T08:04:51.358Z,24.30
2023-02-11T08:07:18.463Z,24.50
2023-02-11T08:09:45.186Z,22.95
2023-02-11T08:12:11.922Z,23.20
2023-02-11T08:14:38.574Z,25.35
2023-02-11T08:17:05.330Z,24.85
2023-02-11T08:19:34.830Z,24.45
2023-02-11T08:22:02.000Z,24.67
2023-02-11T08:24:28.773Z,24.20
2023-02-11T08:26:55.449Z,22.05
2023-02-11T08:29:22.031Z,24.40
2023-02-11T08:31:49.067Z,11.45
2023-02-11T08:34:19.024Z,10.98
2023-02-11T08:36:47.308Z,10.68
2023-02-11T08:39:19.727Z,11.70
2023-02-11T08:41:49.138Z,9.90
2023-02-11T08:44:16.523Z,9.45
2023-02-11T08:46:43.224Z,10.00
2023-02-11T08:49:10.010Z,9.60
2023-02-11T08:51:36.619Z,10.15
2023-02-11T08:54:03.475Z,9.85
2023-02-11T08:56:31.589Z,10.50
2023-02-11T08:58:58.251Z,9.98
2023-02-11T09:01:28.453Z,8.50
2023-02-11T09:03:55.642Z,9.45
2023-02-11T09:06:23.398Z,9.52
2023-02-11T09:08:52.835Z,9.55
2023-02-11T09:11:24.693Z,8.80
2023-02-11T09:13:53.982Z,9.45
2023-02-11T09:16:24.233Z,8.68
2023-02-11T09:18:51.045Z,8.75
2023-02-11T09:21:18.378Z,8.25
2023-02-11T09:23:47.633Z,9.25
2023-02-11T09:26:19.791Z,8.77
2023-02-11T09:28:47.046Z,8.80
2023-02-11T09:31:16.645Z,8.43
2023-02-11T09:33:47.980Z,7.93
2023-02-11T09:36:20.626Z,8.18
2023-02-11T09:38:47.907Z,7.22
2023-02-11T09:41:23.673Z,7.75
2023-02-11T09:43:56.169Z,8.00
2023-02-11T09:46:23.325Z,7.55
2023-02-11T09:48:52.376Z,7.28
2023-02-11T09:51:34.006Z,7.43
2023-02-11T09:54:05.932Z,7.00
2023-02-11T09:56:32.580Z,8.18
2023-02-11T09:58:59.343Z,7.18
2023-02-11T10:01:42.373Z,7.55
2023-02-11T10:04:34.654Z,7.27
2023-02-11T10:07:23.305Z,6.95
2023-02-11T10:10:13.269Z,7.68
2023-02-11T10:13:00.403Z,6.82
2023-02-11T10:15:43.767Z,7.05
2023-02-11T10:18:34.028Z,6.95
2023-02-11T10:21:17.014Z,6.13
2023-02-11T10:23:49.115Z,5.95
2023-02-11T10:26:17.447Z,6.82
2023-02-11T10:28:49.941Z,6.15
2023-02-11T10:31:22.088Z,5.95
2023-02-11T10:33:59.830Z,5.97
2023-02-11T10:36:33.297Z,5.82
2023-02-11T10:39:00.754Z,5.97
2023-02-11T10:41:32.451Z,12.68
2023-02-11T10:44:00.839Z,5.28
2023-02-11T10:46:31.737Z,5.07
2023-02-11T10:48:58.386Z,5.25
2023-02-11T10:51:31.443Z,5.25
2023-02-11T10:54:04.043Z,4.60
2023-02-11T10:56:32.754Z,5.55
2023-02-11T10:59:01.004Z,5.05
2023-02-11T11:01:40.188Z,5.25
2023-02-11T11:04:07.315Z,4.70
2023-02-11T11:06:35.184Z,4.30
2023-02-11T11:09:02.080Z,4.10
2023-02-11T11:11:28.833Z,5.20
2023-02-11T11:13:59.198Z,4.43
2023-02-11T11:16:28.541Z,4.05
2023-02-11T11:19:20.426Z,4.40
2023-02-11T11:21:49.659Z,5.13
2023-02-11T11:24:29.789Z,5.13
2023-02-11T11:26:59.617Z,4.47
2023-02-11T11:29:32.125Z,4.68
2023-02-11T11:32:07.264Z,4.00
2023-02-11T11:34:40.594Z,4.07
2023-02-11T11:37:18.711Z,4.05
2023-02-11T11:39:49.806Z,3.97
2023-02-11T11:42:32.638Z,4.32
2023-02-11T11:45:22.931Z,4.38
2023-02-11T11:48:13.677Z,4.50
2023-02-11T11:50:45.955Z,4.03
2023-02-11T11:53:16.818Z,3.90
2023-02-11T11:55:44.248Z,3.75
2023-02-11T11:58:16.354Z,3.88
2023-02-11T12:00:42.878Z,4.22
2023-02-11T12:03:28.069Z,4.03
2023-02-11T12:06:22.192Z,3.67
2023-02-11T12:08:58.623Z,3.90
2023-02-11T12:11:45.861Z,3.47
2023-02-11T12:15:08.289Z,3.33
2023-02-11T12:18:39.427Z,3.92
2023-02-11T12:21:13.226Z,4.30
2023-02-11T12:26:45.691Z,6.25
2023-02-11T12:29:37.364Z,6.13
2023-02-11T12:32:25.761Z,6.65
2023-02-11T12:35:07.481Z,5.90
2023-02-11T12:37:46.515Z,6.35
2023-02-11T12:40:36.379Z,5.82
2023-02-11T12:43:20.871Z,6.50
2023-02-11T12:46:15.620Z,5.97
2023-02-11T12:49:11.449Z,5.57
2023-02-11T12:51:55.931Z,7.72
2023-02-11T12:54:31.535Z,6.97
2023-02-11T12:57:02.592Z,8.00
2023-02-11T12:59:44.676Z,5.90
2023-02-11T13:02:30.462Z,10.82
2023-02-11T13:05:12.074Z,5.78
2023-02-11T13:07:44.065Z,5.40
2023-02-11T13:10:13.639Z,5.57
2023-02-11T13:13:01.319Z,5.55
2023-02-11T13:15:30.228Z,5.63
2023-02-11T13:18:02.992Z,4.30
2023-02-11T13:20:29.518Z,5.00
2023-02-11T13:23:11.837Z,5.43
2023-02-11T13:25:55.197Z,12.52
2023-02-11T13:28:46.612Z,5.13
2023-02-11T13:31:16.330Z,5.53
2023-02-11T13:33:44.360Z,18.83
2023-02-11T13:36:14.494Z,16.17
2023-02-11T13:38:41.383Z,5.43
2023-02-11T13:41:23.539Z,4.53
2023-02-11T13:44:23.873Z,3.90
2023-02-11T13:47:02.127Z,4.30
2023-02-11T13:49:36.010Z,3.72
2023-02-11T13:52:05.213Z,4.10
2023-02-11T13:54:34.841Z,8.77
2023-02-11T13:57:19.735Z,5.32
2023-02-11T13:59:49.183Z,3.65
2023-02-11T14:02:52.454Z,3.35
2023-02-11T14:05:50.128Z,6.60
2023-02-11T14:08:39.402Z,3.58
2023-02-11T14:11:16.609Z,7.70
2023-02-11T14:13:49.273Z,4.18
2023-02-11T14:16:36.350Z,18.88
2023-02-11T14:19:05.130Z,7.55
2023-02-11T14:21:34.616Z,46.10
2023-02-11T14:24:01.145Z,10.82
2023-02-11T14:26:56.468Z,5.22
2023-02-11T14:29:25.481Z,9.15
2023-02-11T14:32:00.523Z,10.38
2023-02-11T14:34:33.113Z,6.53
2023-02-11T14:37:11.867Z,12.02
2023-02-11T14:40:01.830Z,10.38
2023-02-11T14:42:29.205Z,5.38
2023-02-11T14:44:58.799Z,3.72
2023-02-11T14:47:43.771Z,16.10
2023-02-11T14:50:36.417Z,4.18
2023-02-11T14:53:03.128Z,3.88
2023-02-11T14:55:39.090Z,3.03
2023-02-11T14:58:08.253Z,3.63
2023-02-11T15:00:35.025Z,3.03
2023-02-11T15:03:01.693Z,2.78
2023-02-11T15:05:31.801Z,3.10
2023-02-11T15:08:00.143Z,3.30
2023-02-11T15:10:41.324Z,3.03
2023-02-11T15:13:08.293Z,3.80
2023-02-11T15:15:37.844Z,3.30
2023-02-11T15:18:05.020Z,4.13
2023-02-11T15:20:32.667Z,2.92
2023-02-11T15:23:02.284Z,3.55
2023-02-11T15:25:29.177Z,3.50
2023-02-11T15:27:57.694Z,2.83
2023-02-11T15:30:24.881Z,2.90
2023-02-11T15:33:03.235Z,3.10
2023-02-11T15:35:36.765Z,3.10
2023-02-11T15:38:04.335Z,3.10
2023-02-11T15:40:33.186Z,2.63
2023-02-11T15:43:07.890Z,2.63
2023-02-11T15:45:43.096Z,3.30
2023-02-11T15:48:26.612Z,2.80
2023-02-11T15:51:01.394Z,4.75
2023-02-11T15:53:34.302Z,2.90
2023-02-11T15:56:08.775Z,2.63
2023-02-11T15:58:40.655Z,2.60
2023-02-11T16:01:08.102Z,2.78
2023-02-11T16:03:35.009Z,22.88
2023-02-11T16:06:16.155Z,15.13
2023-02-11T16:08:43.184Z,6.45
2023-02-11T16:11:25.742Z,19.40
2023-02-11T16:13:52.364Z,46.60
2023-02-11T16:16:24.450Z,39.00
2023-02-11T16:19:04.389Z,19.67
2023-02-11T16:21:35.608Z,9.07
2023-02-11T16:24:02.668Z,20.33
2023-02-11T16:26:34.864Z,13.68
2023-02-11T16:29:11.736Z,8.05
2023-02-11T16:31:41.159Z,8.88
2023-02-11T16:34:25.690Z,11.85
2023-02-11T16:36:52.748Z,55.63
2023-02-11T16:39:23.290Z,55.38
2023-02-11T16:41:51.126Z,29.15
2023-02-11T16:44:18.104Z,14.10
2023-02-11T16:46:44.974Z,7.22
2023-02-11T16:49:23.276Z,5.40
2023-02-11T16:51:52.982Z,4.40
2023-02-11T16:54:20.115Z,3.45
2023-02-11T16:56:46.766Z,2.97
2023-02-11T16:59:13.381Z,3.30
2023-02-11T17:01:41.554Z,3.40
2023-02-11T17:04:21.295Z,3.42
2023-02-11T17:06:50.770Z,3.20
2023-02-11T17:09:19.768Z,3.05
2023-02-11T17:11:46.378Z,2.80
2023-02-11T17:14:13.011Z,3.20
2023-02-11T17:16:40.157Z,2.97
2023-02-11T17:19:06.840Z,3.65
2023-02-11T17:21:33.625Z,3.65
2023-02-11T17:24:00.217Z,3.40
2023-02-11T17:26:26.850Z,3.13
2023-02-11T17:28:53.476Z,3.15
2023-02-11T17:31:20.168Z,3.33
2023-02-11T17:33:48.317Z,4.63
2023-02-11T17:36:14.880Z,2.80
2023-02-11T17:38:41.457Z,3.15
2023-02-11T17:41:08.036Z,3.80
2023-02-11T17:43:34.759Z,3.00
2023-02-11T17:46:01.516Z,2.75
2023-02-11T17:48:28.258Z,3.22
2023-02-11T17:50:54.853Z,12.52
2023-02-11T17:53:21.611Z,9.02
2023-02-11T17:55:48.429Z,5.35
2023-02-11T17:58:15.340Z,5.70
2023-02-11T18:00:42.900Z,10.40
2023-02-11T18:03:09.638Z,15.93
2023-02-11T18:05:36.857Z,7.93
2023-02-11T18:08:07.822Z,13.10
2023-02-11T18:10:34.650Z,6.88
2023-02-11T18:13:01.670Z,13.00
2023-02-11T18:15:28.289Z,23.50
2023-02-11T18:17:55.653Z,12.35
2023-02-11T18:20:22.218Z,14.38
2023-02-11T18:22:48.896Z,11.23
2023-02-11T18:25:15.859Z,12.82
2023-02-11T18:27:43.053Z,7.03
2023-02-11T18:30:15.608Z,21.73
2023-02-11T18:32:42.299Z,16.30
2023-02-11T18:35:14.767Z,24.60
2023-02-11T18:37:42.533Z,6.47
2023-02-11T18:40:10.767Z,10.25
2023-02-11T18:42:37.520Z,6.45
2023-02-11T18:45:12.233Z,6.32
2023-02-11T18:47:39.319Z,5.15
2023-02-11T18:50:06.989Z,6.35
2023-02-11T18:52:36.817Z,8.75
2023-02-11T18:55:03.996Z,6.65
2023-02-11T18:57:30.710Z,8.20
2023-02-11T18:59:57.310Z,9.15
2023-02-11T19:02:24.980Z,11.90
2023-02-11T19:04:51.623Z,11.95
2023-02-11T19:07:18.485Z,5.65
2023-02-11T19:09:45.053Z,15.82
2023-02-11T19:12:11.974Z,17.73
2023-02-11T19:14:38.715Z,21.60
2023-02-11T19:17:07.222Z,9.25
2023-02-11T19:19:35.576Z,5.78
2023-02-11T19:22:03.676Z,6.60
2023-02-11T19:24:30.686Z,13.23
2023-02-11T19:26:59.391Z,9.55
2023-02-11T19:29:26.781Z,13.05
2023-02-11T19:31:53.992Z,6.18
2023-02-11T19:34:21.392Z,6.40
2023-02-11T19:36:49.203Z,6.28
2023-02-11T19:39:15.790Z,6.10
2023-02-11T19:41:42.695Z,4.57
2023-02-11T19:44:09.533Z,4.38
2023-02-11T19:46:38.024Z,5.43
2023-02-11T19:49:05.140Z,5.10
2023-02-11T19:51:33.504Z,4.72
2023-02-11T19:54:00.443Z,4.50
2023-02-11T19:56:28.713Z,5.10
2023-02-11T19:58:55.570Z,4.43
2023-02-11T20:01:23.398Z,4.07
2023-02-11T20:03:51.606Z,4.13
2023-02-11T20:06:23.455Z,4.95
2023-02-11T20:08:59.245Z,5.43
2023-02-11T20:11:27.985Z,4.78
2023-02-11T20:13:55.285Z,4.03
2023-02-11T20:16:27.023Z,4.55
2023-02-11T20:19:00.875Z,4.18
2023-02-11T20:21:32.008Z,5.45
2023-02-11T20:23:59.033Z,5.07
2023-02-11T20:26:28.038Z,4.72
2023-02-11T20:28:55.861Z,4.40
2023-02-11T20:31:23.876Z,4.70
2023-02-11T20:33:50.671Z,4.60
2023-02-11T20:36:23.451Z,4.90
2023-02-11T20:38:50.580Z,5.00
2023-02-11T20:41:20.132Z,4.60
2023-02-11T20:43:51.762Z,5.03
2023-02-11T20:46:20.557Z,4.13
2023-02-11T20:48:47.346Z,4.38
2023-02-11T20:51:16.380Z,5.32
2023-02-11T20:53:47.824Z,4.25
2023-02-11T20:56:15.133Z,4.18
2023-02-11T20:58:42.010Z,4.40
2023-02-11T21:01:16.663Z,4.78
2023-02-11T21:03:44.683Z,5.60
2023-02-11T21:06:11.879Z,5.35
2023-02-11T21:08:38.527Z,5.80
2023-02-11T21:11:08.835Z,9.15
2023-02-11T21:13:36.684Z,8.60
2023-02-11T21:16:04.215Z,6.65
2023-02-11T21:18:31.210Z,6.18
2023-02-11T21:20:57.777Z,6.03
2023-02-11T21:23:24.877Z,5.65
2023-02-11T21:25:53.532Z,6.47
2023-02-11T21:28:25.984Z,6.72
2023-02-11T21:30:56.944Z,7.15
2023-02-11T21:33:27.582Z,8.35
2023-02-11T21:35:56.344Z,7.00
2023-02-11T21:38:23.134Z,7.70
2023-02-11T21:40:50.163Z,7.38
2023-02-11T21:43:16.890Z,7.97
2023-02-11T21:45:44.427Z,7.88
2023-02-11T21:48:11.664Z,8.05
2023-02-11T21:50:40.142Z,8.48
2023-02-11T21:53:07.158Z,9.07
2023-02-11T21:55:33.958Z,8.45
2023-02-11T21:58:00.526Z,8.65
2023-02-11T22:00:27.489Z,8.05
2023-02-11T22:02:54.527Z,8.50
2023-02-11T22:05:21.263Z,8.75
2023-02-11T22:07:48.294Z,8.90
2023-02-11T22:10:15.230Z,8.95
2023-02-11T22:12:42.100Z,9.70
2023-02-11T22:15:09.158Z,9.02
2023-02-11T22:17:35.824Z,10.68
2023-02-11T22:20:02.380Z,9.35
2023-02-11T22:22:29.300Z,9.38
2023-02-11T22:24:56.102Z,9.13
2023-02-11T22:27:22.962Z,10.00
2023-02-11T22:29:49.537Z,9.65
2023-02-11T22:32:17.781Z,10.38
2023-02-11T22:34:44.661Z,10.73
2023-02-11T22:37:11.393Z,9.45
2023-02-11T22:39:38.292Z,10.40
2023-02-11T22:42:05.058Z,11.02
2023-02-11T22:44:31.802Z,10.27
2023-02-11T22:46:58.398Z,10.85
2023-02-11T22:49:25.108Z,10.35
2023-02-11T22:51:51.711Z,10.90
2023-02-11T22:54:19.345Z,11.35
2023-02-11T22:56:46.175Z,11.35
2023-02-11T22:59:14.391Z,12.13
2023-02-11T23:01:41.671Z,10.95
2023-02-11T23:04:10.874Z,10.25
2023-02-11T23:06:37.734Z,9.98
2023-02-11T23:09:06.108Z,11.25
2023-02-11T23:11:33.040Z,10.98
2023-02-11T23:14:01.095Z,10.65
2023-02-11T23:16:31.214Z,9.93
2023-02-11T23:19:03.561Z,11.48
2023-02-11T23:21:31.660Z,10.57
2023-02-11T23:24:01.153Z,10.68
2023-02-11T23:26:28.673Z,10.65
2023-02-11T23:28:56.231Z,11.18
2023-02-11T23:31:25.703Z,10.98
2023-02-11T23:33:52.817Z,10.15
2023-02-11T23:36:20.565Z,10.80
2023-02-11T23:38:47.774Z,11.52
2023-02-11T23:41:14.687Z,11.95
2023-02-11T23:43:41.731Z,9.95
2023-02-11T23:46:08.974Z,11.65
2023-02-11T23:48:37.646Z,11.68
2023-02-11T23:51:04.625Z,11.90
2023-02-11T23:53:31.264Z,10.60
2023-02-11T23:55:58.046Z,11.95
2023-02-11T23:58:24.645Z,11.35
